createdAt,value
2023-02-28T00:01:22.934Z,10.13
2023-02-28T00:03:50.452Z,8.03
2023-02-28T00:06:17.425Z,6.27
2023-02-28T00:08:44.476Z,5.17
2023-02-28T00:11:12.938Z,6.70
2023-02-28T00:13:43.363Z,8.77
2023-02-28T00:16:12.444Z,10.97
2023-02-28T00:18:39.243Z,11.20
2023-02-28T00:21:06.349Z,8.60
2023-02-28T00:23:33.500Z,11.20
2023-02-28T00:26:00.440Z,8.60
2023-02-28T00:28:27.241Z,12.83
2023-02-28T00:30:55.455Z,6.83
2023-02-28T00:33:22.213Z,6.20
2023-02-28T00:35:49.003Z,7.93
2023-02-28T00:38:16.383Z,7.33
2023-02-28T00:40:43.206Z,11.03
2023-02-28T00:43:09.962Z,9.50
2023-02-28T00:45:36.772Z,16.07
2023-02-28T00:48:05.400Z,15.07
2023-02-28T00:50:32.190Z,9.13
2023-02-28T00:52:58.930Z,6.97
2023-02-28T00:55:25.742Z,9.53
2023-02-28T00:57:52.485Z,10.33
2023-02-28T01:00:19.877Z,9.40
2023-02-28T01:02:46.616Z,7.83
2023-02-28T01:05:14.772Z,10.50
2023-02-28T01:07:41.458Z,10.47
2023-02-28T01:10:09.661Z,10.00
2023-02-28T01:12:36.440Z,11.07
2023-02-28T01:15:03.552Z,7.87
2023-02-28T01:17:30.332Z,10.30
2023-02-28T01:19:57.189Z,9.73
2023-02-28T01:22:25.339Z,9.07
2023-02-28T01:24:52.286Z,6.47
2023-02-28T01:27:19.028Z,8.10
2023-02-28T01:29:45.891Z,10.27
2023-02-28T01:32:12.674Z,10.50
2023-02-28T01:34:39.570Z,7.40
2023-02-28T01:37:06.366Z,9.20
2023-02-28T01:39:34.662Z,8.83
2023-02-28T01:42:01.399Z,8.87
2023-02-28T01:44:58.620Z,7.67
2023-02-28T01:47:28.247Z,4.47
2023-02-28T01:49:55.603Z,6.20
2023-02-28T01:52:23.062Z,5.87
2023-02-28T01:54:54.600Z,7.07
2023-02-28T01:57:26.024Z,8.97
2023-02-28T01:59:57.903Z,9.40
2023-02-28T02:02:25.842Z,13.10
2023-02-28T02:04:56.126Z,8.23
2023-02-28T02:07:24.361Z,14.87
2023-02-28T02:10:01.044Z,12.30
2023-02-28T02:12:42.294Z,7.23
2023-02-28T02:15:16.857Z,5.97
2023-02-28T02:17:47.823Z,5.73
2023-02-28T02:20:59.937Z,7.47
2023-02-28T02:23:47.659Z,7.40
2023-02-28T02:26:41.938Z,7.40
2023-02-28T02:29:37.011Z,8.90
2023-02-28T02:32:17.811Z,7.27
2023-02-28T02:34:53.207Z,4.63
2023-02-28T02:37:30.194Z,4.23
2023-02-28T02:40:04.150Z,8.57
2023-02-28T02:42:40.593Z,7.00
2023-02-28T02:45:11.282Z,11.70
2023-02-28T02:47:39.764Z,4.87
2023-02-28T02:50:13.457Z,7.10
2023-02-28T02:52:45.470Z,9.00
2023-02-28T02:55:14.351Z,8.20
2023-02-28T02:57:46.396Z,10.57
2023-02-28T03:00:14.923Z,9.40
2023-02-28T03:02:43.339Z,6.30
2023-02-28T03:05:18.060Z,9.13
2023-02-28T03:07:44.962Z,7.00
2023-02-28T03:10:34.437Z,6.50
2023-02-28T03:13:13.692Z,8.60
2023-02-28T03:15:51.822Z,14.53
2023-02-28T03:18:26.010Z,6.97
2023-02-28T03:21:00.591Z,7.63
2023-02-28T03:23:36.546Z,5.73
2023-02-28T03:26:07.986Z,5.30
2023-02-28T03:28:42.329Z,4.63
2023-02-28T03:31:16.094Z,4.67
2023-02-28T03:33:48.026Z,4.73
2023-02-28T03:36:20.306Z,5.13
2023-02-28T03:38:52.036Z,3.97
2023-02-28T03:41:22.079Z,5.90
2023-02-28T03:43:54.688Z,6.40
2023-02-28T03:46:26.556Z,3.43
2023-02-28T03:48:57.377Z,5.83
2023-02-28T03:51:28.511Z,5.00
2023-02-28T03:54:00.401Z,7.20
2023-02-28T03:56:32.216Z,4.23
2023-02-28T03:59:03.487Z,5.40
2023-02-28T04:01:35.180Z,5.30
2023-02-28T04:04:02.385Z,3.70
2023-02-28T04:06:33.836Z,6.00
2023-02-28T04:09:00.703Z,5.00
2023-02-28T04:11:33.272Z,5.17
2023-02-28T04:14:00.045Z,7.97
2023-02-28T04:16:34.924Z,5.03
2023-02-28T04:19:03.078Z,4.33
2023-02-28T04:21:32.733Z,7.23
2023-02-28T04:23:59.642Z,7.83
2023-02-28T04:26:26.404Z,6.70
2023-02-28T04:28:53.193Z,8.77
2023-02-28T04:31:20.060Z,5.33
2023-02-28T04:33:46.857Z,4.80
2023-02-28T04:36:13.562Z,6.53
2023-02-28T04:38:41.675Z,3.97
2023-02-28T04:41:08.477Z,37.87
2023-02-28T04:43:35.207Z,5.70
2023-02-28T04:46:04.420Z,5.53
2023-02-28T04:48:33.256Z,5.23
2023-02-28T04:51:02.029Z,5.43
2023-02-28T04:53:29.501Z,3.57
2023-02-28T04:55:58.385Z,4.03
2023-02-28T04:58:25.569Z,5.17
2023-02-28T05:00:52.673Z,2.93
2023-02-28T05:03:20.016Z,4.83
2023-02-28T05:05:46.695Z,5.53
2023-02-28T05:08:13.450Z,3.90
2023-02-28T05:10:40.607Z,3.80
2023-02-28T05:13:11.774Z,4.67
2023-02-28T05:15:38.593Z,2.47
2023-02-28T05:18:05.671Z,3.67
2023-02-28T05:20:32.410Z,2.97
2023-02-28T05:23:00.190Z,2.73
2023-02-28T05:25:27.048Z,3.87
2023-02-28T05:27:53.808Z,5.27
2023-02-28T05:30:22.250Z,4.17
2023-02-28T05:32:52.424Z,3.23
2023-02-28T05:35:19.311Z,4.00
2023-02-28T05:37:46.130Z,3.87
2023-02-28T05:40:13.601Z,4.70
2023-02-28T05:42:40.517Z,4.80
2023-02-28T05:45:08.946Z,4.90
2023-02-28T05:47:37.273Z,7.40
2023-02-28T05:50:04.704Z,4.57
2023-02-28T05:52:31.504Z,8.83
2023-02-28T05:54:58.282Z,4.63
2023-02-28T05:57:25.673Z,3.87
2023-02-28T05:59:52.474Z,6.00
2023-02-28T06:02:19.412Z,6.57
2023-02-28T06:04:48.032Z,6.47
2023-02-28T06:07:14.807Z,3.73
2023-02-28T06:09:41.552Z,4.27
2023-02-28T06:12:08.368Z,3.33
2023-02-28T06:14:35.601Z,4.53
2023-02-28T06:17:03.830Z,6.20
2023-02-28T06:19:31.179Z,3.10
2023-02-28T06:21:59.259Z,10.27
2023-02-28T06:24:27.399Z,3.23
2023-02-28T06:26:54.334Z,4.27
2023-02-28T06:29:21.085Z,4.50
2023-02-28T06:31:48.289Z,4.20
2023-02-28T06:34:15.546Z,8.37
2023-02-28T06:36:42.894Z,11.43
2023-02-28T06:39:11.285Z,4.83
2023-02-28T06:41:53.088Z,7.47
2023-02-28T06:44:20.819Z,8.67
2023-02-28T06:46:48.108Z,7.80
2023-02-28T06:49:15.333Z,4.60
2023-02-28T06:51:44.102Z,12.37
2023-02-28T06:54:13.276Z,6.57
2023-02-28T06:56:40.317Z,5.60
2023-02-28T06:59:07.359Z,6.03
2023-02-28T07:01:34.381Z,6.90
2023-02-28T07:04:01.972Z,5.03
2023-02-28T07:06:29.213Z,6.17
2023-02-28T07:08:56.424Z,6.17
2023-02-28T07:11:26.703Z,4.73
2023-02-28T07:13:53.905Z,6.85
2023-02-28T07:16:21.010Z,8.37
2023-02-28T07:18:47.867Z,10.53
2023-02-28T07:21:15.308Z,9.90
2023-02-28T07:23:42.388Z,4.33
2023-02-28T07:26:12.976Z,4.03
2023-02-28T07:28:41.166Z,5.70
2023-02-28T07:31:09.282Z,6.67
2023-02-28T07:33:36.663Z,6.50
2023-02-28T07:36:04.341Z,6.77
2023-02-28T07:38:31.171Z,4.83
2023-02-28T07:40:57.971Z,4.57
2023-02-28T07:43:24.717Z,3.37
2023-02-28T07:45:52.863Z,8.90
2023-02-28T07:48:19.551Z,4.90
2023-02-28T07:50:54.629Z,3.77
2023-02-28T07:53:21.345Z,6.80
2023-02-28T07:55:48.146Z,4.20
2023-02-28T07:58:14.848Z,5.93
2023-02-28T08:00:41.675Z,6.00
2023-02-28T08:03:12.741Z,7.00
2023-02-28T08:05:40.126Z,7.67
2023-02-28T08:08:06.928Z,4.97
2023-02-28T08:10:33.788Z,5.03
2023-02-28T08:13:00.642Z,12.30
2023-02-28T08:15:27.700Z,7.33
2023-02-28T08:17:54.463Z,4.90
2023-02-28T08:20:22.690Z,5.87
2023-02-28T08:22:49.458Z,6.50
2023-02-28T08:25:16.514Z,4.87
2023-02-28T08:27:43.467Z,5.77
2023-02-28T08:30:12.597Z,6.77
2023-02-28T08:32:39.713Z,6.60
2023-02-28T08:35:07.692Z,7.77
2023-02-28T08:37:35.945Z,5.60
2023-02-28T08:40:02.710Z,4.90
2023-02-28T08:42:29.464Z,6.20
2023-02-28T08:44:56.217Z,6.13
2023-02-28T08:47:23.004Z,2.90
2023-02-28T08:49:49.823Z,3.87
2023-02-28T08:52:16.584Z,3.27
2023-02-28T08:54:44.785Z,7.40
2023-02-28T08:57:11.535Z,6.87
2023-02-28T08:59:38.325Z,3.90
2023-02-28T09:02:05.074Z,4.70
2023-02-28T09:04:31.912Z,4.70
2023-02-28T09:06:58.706Z,7.40
2023-02-28T09:09:25.460Z,4.00
2023-02-28T09:11:53.585Z,1.50
2023-02-28T09:14:20.459Z,7.63
2023-02-28T09:16:47.232Z,4.03
2023-02-28T09:19:14.325Z,2.03
2023-02-28T09:21:41.538Z,2.67
2023-02-28T09:24:08.925Z,5.70
2023-02-28T09:26:42.751Z,2.30
2023-02-28T09:29:15.498Z,3.03
2023-02-28T09:31:42.294Z,4.33
2023-02-28T09:34:09.243Z,4.83
2023-02-28T09:36:44.716Z,3.23
2023-02-28T09:39:13.499Z,4.43
2023-02-28T09:41:43.441Z,2.10
2023-02-28T09:44:17.954Z,0.70
2023-02-28T09:46:49.262Z,4.27
2023-02-28T09:49:19.573Z,3.43
2023-02-28T09:51:51.282Z,3.27
2023-02-28T09:54:31.607Z,4.20
2023-02-28T09:57:02.537Z,3.53
2023-02-28T09:59:53.954Z,3.23
2023-02-28T10:02:40.614Z,2.90
2023-02-28T10:05:12.354Z,3.37
2023-02-28T10:07:53.746Z,3.70
2023-02-28T10:10:25.330Z,2.60
2023-02-28T10:12:54.796Z,0.80
2023-02-28T10:15:26.352Z,3.00
2023-02-28T10:18:08.362Z,3.20
2023-02-28T10:20:39.651Z,2.00
2023-02-28T10:23:13.147Z,1.80
2023-02-28T10:25:40.530Z,2.30
2023-02-28T10:28:12.779Z,2.60
2023-02-28T10:30:44.292Z,3.63
2023-02-28T10:33:20.357Z,6.17
2023-02-28T10:35:47.307Z,5.60
2023-02-28T10:38:18.406Z,5.20
2023-02-28T10:40:45.515Z,2.50
2023-02-28T10:43:23.829Z,2.53
2023-02-28T10:45:59.646Z,2.90
2023-02-28T10:48:31.731Z,5.87
2023-02-28T10:50:59.446Z,4.83
2023-02-28T10:53:44.856Z,2.77
2023-02-28T10:56:23.249Z,3.10
2023-02-28T10:58:54.511Z,2.40
2023-02-28T11:01:24.820Z,2.50
2023-02-28T11:03:53.256Z,7.10
2023-02-28T11:06:22.446Z,3.63
2023-02-28T11:08:52.827Z,5.20
2023-02-28T11:11:21.127Z,4.77
2023-02-28T11:13:49.322Z,2.33
2023-02-28T11:16:16.485Z,4.10
2023-02-28T11:18:48.972Z,2.70
2023-02-28T11:21:25.858Z,3.87
2023-02-28T11:23:55.883Z,3.07
2023-02-28T11:26:41.259Z,2.33
2023-02-28T11:29:16.859Z,3.37
2023-02-28T11:31:43.892Z,3.20
2023-02-28T11:34:37.114Z,2.83
2023-02-28T11:37:04.061Z,4.27
2023-02-28T11:39:31.623Z,3.57
2023-02-28T11:42:16.942Z,2.83
2023-02-28T11:44:54.387Z,3.60
2023-02-28T11:47:30.918Z,4.97
2023-02-28T11:50:10.804Z,2.63
2023-02-28T11:52:44.159Z,4.27
2023-02-28T11:55:18.357Z,3.30
2023-02-28T11:57:57.747Z,3.27
2023-02-28T12:00:40.283Z,2.87
2023-02-28T12:03:20.756Z,2.70
2023-02-28T12:05:59.100Z,1.30
2023-02-28T12:08:43.410Z,3.00
2023-02-28T12:11:16.232Z,4.07
2023-02-28T12:13:49.334Z,1.07
2023-02-28T12:16:38.691Z,3.67
2023-02-28T12:19:19.545Z,1.50
2023-02-28T12:22:04.137Z,3.17
2023-02-28T12:24:48.893Z,5.43
2023-02-28T12:27:20.055Z,2.83
2023-02-28T12:29:51.080Z,4.97
2023-02-28T12:32:22.650Z,4.10
2023-02-28T12:34:53.274Z,3.43
2023-02-28T12:37:26.150Z,3.37
2023-02-28T12:39:57.581Z,2.90
2023-02-28T12:42:29.566Z,3.20
2023-02-28T12:45:00.277Z,3.90
2023-02-28T12:47:27.010Z,2.90
2023-02-28T12:49:57.663Z,4.90
2023-02-28T12:52:32.504Z,5.93
2023-02-28T12:55:04.521Z,3.50
2023-02-28T12:57:37.797Z,3.00
2023-02-28T13:00:11.609Z,4.60
2023-02-28T13:03:01.818Z,3.00
2023-02-28T13:05:59.188Z,4.13
2023-02-28T13:08:54.731Z,5.07
2023-02-28T13:11:26.688Z,3.17
2023-02-28T13:13:59.591Z,3.63
2023-02-28T13:16:26.434Z,2.20
2023-02-28T13:18:53.243Z,2.37
2023-02-28T13:21:29.455Z,3.20
2023-02-28T13:24:04.047Z,4.13
2023-02-28T13:27:04.345Z,2.93
2023-02-28T13:29:33.337Z,4.23
2023-02-28T13:32:42.579Z,3.57
2023-02-28T13:35:44.302Z,2.33
2023-02-28T13:38:36.064Z,4.90
2023-02-28T13:41:40.239Z,3.97
2023-02-28T13:44:10.481Z,2.73
2023-02-28T13:46:58.471Z,4.40
2023-02-28T13:49:27.857Z,4.10
2023-02-28T13:52:03.539Z,3.70
2023-02-28T13:54:43.664Z,3.40
2023-02-28T13:57:25.922Z,2.00
2023-02-28T14:00:06.020Z,4.40
2023-02-28T14:03:02.613Z,3.30
2023-02-28T14:05:31.883Z,4.47
2023-02-28T14:08:04.749Z,3.87
2023-02-28T14:10:35.079Z,3.37
2023-02-28T14:13:13.688Z,2.67
2023-02-28T14:15:57.978Z,2.10
2023-02-28T14:18:29.359Z,3.13
2023-02-28T14:21:03.045Z,4.53
2023-02-28T14:24:00.461Z,4.60
2023-02-28T14:26:45.357Z,3.90
2023-02-28T14:29:30.871Z,4.93
2023-02-28T14:32:06.804Z,6.13
2023-02-28T14:34:40.394Z,3.40
2023-02-28T14:37:11.746Z,4.67
2023-02-28T14:39:42.662Z,4.43
2023-02-28T14:42:28.966Z,7.20
2023-02-28T14:44:56.203Z,3.77
2023-02-28T14:47:28.811Z,6.57
2023-02-28T14:49:55.696Z,5.93
2023-02-28T14:52:25.120Z,4.73
2023-02-28T14:54:54.757Z,3.03
2023-02-28T14:57:24.697Z,5.00
2023-02-28T15:00:00.127Z,4.50
2023-02-28T15:02:31.774Z,4.13
2023-02-28T15:05:00.741Z,3.40
2023-02-28T15:07:28.479Z,5.77
2023-02-28T15:10:19.273Z,4.43
2023-02-28T15:12:52.050Z,4.17
2023-02-28T15:15:25.306Z,4.53
2023-02-28T15:18:01.398Z,4.60
2023-02-28T15:20:28.349Z,5.00
2023-02-28T15:22:57.710Z,4.73
2023-02-28T15:25:25.186Z,37.43
2023-02-28T15:27:54.458Z,17.10
2023-02-28T15:30:23.928Z,9.17
2023-02-28T15:33:07.540Z,5.93
2023-02-28T15:35:34.826Z,4.23
2023-02-28T15:38:03.492Z,5.20
2023-02-28T15:40:32.796Z,5.47
2023-02-28T15:43:03.841Z,4.37
2023-02-28T15:45:36.365Z,5.90
2023-02-28T15:48:13.584Z,5.60
2023-02-28T15:50:41.580Z,9.37
2023-02-28T15:53:15.091Z,8.73
2023-02-28T15:55:41.983Z,5.87
2023-02-28T15:58:12.367Z,9.37
2023-02-28T16:00:39.970Z,6.77
2023-02-28T16:03:26.055Z,6.30
2023-02-28T16:06:22.548Z,5.30
2023-02-28T16:08:49.597Z,3.50
2023-02-28T16:11:16.405Z,5.20
2023-02-28T16:13:43.225Z,11.50
2023-02-28T16:16:15.631Z,3.53
2023-02-28T16:18:43.882Z,9.70
2023-02-28T16:21:10.708Z,10.73
2023-02-28T16:23:37.466Z,3.70
2023-02-28T16:26:05.514Z,4.40
2023-02-28T16:28:34.914Z,4.83
2023-02-28T16:31:03.184Z,4.73
2023-02-28T16:33:30.040Z,6.17
2023-02-28T16:35:58.673Z,5.10
2023-02-28T16:38:25.544Z,6.03
2023-02-28T16:40:54.006Z,7.83
2023-02-28T16:43:24.177Z,5.13
2023-02-28T16:45:56.332Z,4.17
2023-02-28T16:48:23.250Z,5.17
2023-02-28T16:50:50.047Z,8.67
2023-02-28T16:53:18.546Z,4.40
2023-02-28T16:55:45.622Z,6.53
2023-02-28T16:58:16.201Z,5.00
2023-02-28T17:00:43.042Z,4.27
2023-02-28T17:03:32.011Z,8.03
2023-02-28T17:05:59.714Z,5.07
2023-02-28T17:08:27.814Z,6.17
2023-02-28T17:10:54.559Z,4.47
2023-02-28T17:13:21.271Z,4.40
2023-02-28T17:15:48.719Z,3.47
2023-02-28T17:18:18.149Z,7.73
2023-02-28T17:20:45.161Z,5.93
2023-02-28T17:23:11.956Z,5.80
2023-02-28T17:25:40.088Z,8.07
2023-02-28T17:28:06.814Z,6.80
2023-02-28T17:30:35.548Z,4.43
2023-02-28T17:33:02.307Z,4.60
2023-02-28T17:35:29.237Z,5.67
2023-02-28T17:37:56.017Z,6.23
2023-02-28T17:40:24.431Z,5.90
2023-02-28T17:42:52.582Z,7.80
2023-02-28T17:45:19.352Z,7.70
2023-02-28T17:47:50.399Z,10.20
2023-02-28T17:50:20.596Z,6.60
2023-02-28T17:52:47.390Z,5.27
2023-02-28T17:55:14.755Z,8.90
2023-02-28T17:57:41.699Z,6.77
2023-02-28T18:00:15.169Z,6.77
2023-02-28T18:02:42.166Z,6.20
2023-02-28T18:05:09.607Z,3.30
2023-02-28T18:07:37.698Z,3.80
2023-02-28T18:10:05.484Z,7.43
2023-02-28T18:12:32.245Z,6.37
2023-02-28T18:14:59.044Z,6.77
2023-02-28T18:17:27.289Z,9.03
2023-02-28T18:19:54.041Z,5.70
2023-02-28T18:22:20.843Z,8.60
2023-02-28T18:24:47.976Z,9.93
2023-02-28T18:27:14.911Z,4.50
2023-02-28T18:29:41.839Z,11.73
2023-02-28T18:32:09.184Z,12.37
2023-02-28T18:34:37.580Z,8.00
2023-02-28T18:37:04.669Z,12.10
2023-02-28T18:39:31.450Z,9.53
2023-02-28T18:41:58.228Z,9.73
2023-02-28T18:44:25.018Z,10.77
2023-02-28T18:46:52.123Z,9.70
2023-02-28T18:49:22.470Z,8.80
2023-02-28T18:51:50.703Z,9.87
2023-02-28T18:54:17.718Z,12.63
2023-02-28T18:56:45.047Z,10.67
2023-02-28T18:59:12.499Z,10.43
2023-02-28T19:01:39.465Z,18.07
2023-02-28T19:04:06.256Z,11.10
2023-02-28T19:06:33.546Z,12.73
2023-02-28T19:09:03.363Z,12.13
2023-02-28T19:11:30.910Z,11.23
2023-02-28T19:13:58.069Z,16.60
2023-02-28T19:16:25.514Z,10.50
2023-02-28T19:18:52.515Z,13.60
2023-02-28T19:21:21.288Z,12.90
2023-02-28T19:23:48.695Z,12.17
2023-02-28T19:26:19.198Z,11.17
2023-02-28T19:28:46.474Z,16.43
2023-02-28T19:31:14.680Z,14.87
2023-02-28T19:33:41.522Z,11.40
2023-02-28T19:36:09.211Z,19.63
2023-02-28T19:38:35.915Z,13.23
2023-02-28T19:41:03.806Z,18.23
2023-02-28T19:43:32.545Z,14.93
2023-02-28T19:46:00.309Z,15.40
2023-02-28T19:48:27.837Z,10.93
2023-02-28T19:50:57.251Z,15.20
2023-02-28T19:53:24.403Z,13.50
2023-02-28T19:55:51.255Z,10.47
2023-02-28T19:58:19.855Z,11.37
2023-02-28T20:00:50.095Z,31.53
2023-02-28T20:03:17.501Z,20.77
2023-02-28T20:05:44.519Z,48.07
2023-02-28T20:08:12.191Z,18.07
2023-02-28T20:10:39.685Z,29.60
2023-02-28T20:13:06.637Z,12.23
2023-02-28T20:15:33.821Z,17.63
2023-02-28T20:18:01.969Z,13.93
2023-02-28T20:20:28.811Z,21.87
2023-02-28T20:22:55.719Z,17.90
2023-02-28T20:25:22.830Z,12.97
2023-02-28T20:27:49.633Z,15.93
2023-02-28T20:30:16.812Z,21.77
2023-02-28T20:32:43.737Z,23.47
2023-02-28T20:35:12.462Z,16.63
2023-02-28T20:37:39.740Z,16.40
2023-02-28T20:40:08.003Z,17.33
2023-02-28T20:42:34.914Z,14.23
2023-02-28T20:45:07.256Z,15.03
2023-02-28T20:47:34.023Z,23.50
2023-02-28T20:50:00.934Z,18.10
2023-02-28T20:52:29.166Z,21.00
2023-02-28T20:54:55.950Z,20.43
2023-02-28T20:57:22.813Z,17.13
2023-02-28T20:59:49.603Z,13.30
2023-02-28T21:02:18.652Z,14.67
2023-02-28T21:04:45.653Z,11.07
2023-02-28T21:07:12.618Z,16.07
2023-02-28T21:09:41.328Z,11.27
2023-02-28T21:12:10.035Z,17.30
2023-02-28T21:14:36.841Z,15.70
2023-02-28T21:17:04.143Z,16.93
2023-02-28T21:19:31.201Z,15.67
2023-02-28T21:21:58.126Z,14.37
2023-02-28T21:24:27.502Z,13.90
2023-02-28T21:26:57.092Z,15.90
2023-02-28T21:29:23.967Z,13.10
2023-02-28T21:31:51.984Z,14.20
2023-02-28T21:34:19.539Z,11.87
2023-02-28T21:36:48.685Z,11.97
2023-02-28T21:39:17.590Z,13.00
2023-02-28T21:41:47.240Z,13.13
2023-02-28T21:44:16.046Z,14.13
2023-02-28T21:46:43.097Z,10.23
2023-02-28T21:49:10.042Z,15.40
2023-02-28T21:51:38.908Z,12.13
2023-02-28T21:54:06.121Z,13.03
2023-02-28T21:56:34.344Z,18.40
2023-02-28T21:59:01.935Z,14.43
2023-02-28T22:01:31.796Z,15.90
2023-02-28T22:03:59.571Z,20.70
2023-02-28T22:06:29.127Z,19.10
2023-02-28T22:08:58.346Z,22.93
2023-02-28T22:11:25.966Z,15.43
2023-02-28T22:13:55.982Z,20.93
2023-02-28T22:16:25.420Z,14.97
2023-02-28T22:18:53.968Z,16.17
2023-02-28T22:21:21.909Z,19.03
2023-02-28T22:23:50.417Z,16.73
2023-02-28T22:26:19.903Z,11.47
2023-02-28T22:28:47.213Z,14.27
2023-02-28T22:31:15.822Z,21.47
2023-02-28T22:33:43.288Z,18.67
2023-02-28T22:36:13.403Z,18.23
2023-02-28T22:38:41.044Z,18.13
2023-02-28T22:41:08.383Z,19.30
2023-02-28T22:43:35.710Z,19.63
2023-02-28T22:46:03.229Z,20.13
2023-02-28T22:48:30.486Z,14.07
2023-02-28T22:51:04.521Z,21.90
2023-02-28T22:53:33.142Z,19.10
2023-02-28T22:56:00.448Z,19.97
2023-02-28T22:58:27.666Z,23.03
2023-02-28T23:00:55.412Z,14.97
2023-02-28T23:03:23.210Z,13.20
2023-02-28T23:05:50.136Z,20.43
2023-02-28T23:08:17.498Z,19.42
2023-02-28T23:10:45.653Z,17.60
2023-02-28T23:13:12.403Z,15.80
2023-02-28T23:15:40.413Z,18.83
2023-02-28T23:18:07.552Z,21.60
2023-02-28T23:20:34.465Z,18.70
2023-02-28T23:23:01.297Z,14.13
2023-02-28T23:25:28.192Z,13.00
2023-02-28T23:27:56.396Z,14.83
2023-02-28T23:30:23.208Z,20.00
2023-02-28T23:32:50.006Z,15.20
2023-02-28T23:35:16.873Z,14.10
2023-02-28T23:37:43.669Z,17.67
2023-02-28T23:40:12.780Z,17.80
2023-02-28T23:42:40.506Z,12.60
2023-02-28T23:45:10.147Z,15.80
2023-02-28T23:47:37.301Z,13.13
2023-02-28T23:50:04.895Z,12.80
2023-02-28T23:52:31.666Z,16.70
2023-02-28T23:54:58.602Z,13.90
2023-02-28T23:57:25.422Z,11.30
2023-02-28T23:59:52.317Z,13.47
